createdAt,value
2019-03-31T00:01:50.726Z,60.70
2019-03-31T00:04:22.954Z,60.80
2019-03-31T00:06:55.516Z,61.20
2019-03-31T00:09:26.355Z,61.20
2019-03-31T00:11:57.294Z,61.30
2019-03-31T00:14:28.149Z,61.50
2019-03-31T00:16:59.027Z,61.70
2019-03-31T00:19:29.884Z,61.80
2019-03-31T00:22:00.828Z,61.90
2019-03-31T00:24:31.804Z,62.20
2019-03-31T00:27:02.756Z,62.30
2019-03-31T00:29:33.605Z,62.40
2019-03-31T00:32:04.558Z,62.50
2019-03-31T00:34:35.413Z,62.70
2019-03-31T00:37:07.743Z,62.70
2019-03-31T00:39:39.354Z,62.90
2019-03-31T00:42:10.253Z,63.30
2019-03-31T00:44:41.335Z,63.40
2019-03-31T00:47:12.238Z,63.50
2019-03-31T00:49:43.077Z,63.40
2019-03-31T00:52:13.972Z,63.50
2019-03-31T00:54:44.803Z,63.70
2019-03-31T00:57:15.689Z,63.60
2019-03-31T00:59:46.524Z,63.80
2019-03-31T01:02:21.888Z,63.90
2019-03-31T01:04:52.820Z,64.10
2019-03-31T01:07:26.375Z,64.30
2019-03-31T01:09:58.695Z,64.30
2019-03-31T01:12:29.872Z,64.20
2019-03-31T01:15:01.296Z,64.40
2019-03-31T01:17:32.176Z,64.40
2019-03-31T01:20:03.610Z,65.80
2019-03-31T01:22:34.501Z,65.90
2019-03-31T01:25:06.229Z,66.30
2019-03-31T01:27:37.221Z,66.50
2019-03-31T01:30:10.011Z,66.50
2019-03-31T01:32:43.403Z,66.70
2019-03-31T01:35:14.755Z,66.90
2019-03-31T01:37:45.792Z,67.30
2019-03-31T01:40:16.947Z,67.50
2019-03-31T01:42:47.827Z,68.00
2019-03-31T01:45:18.766Z,68.30
2019-03-31T01:47:49.617Z,68.70
2019-03-31T01:50:21.249Z,68.80
2019-03-31T01:52:52.102Z,69.10
2019-03-31T01:55:22.938Z,69.30
2019-03-31T01:57:53.883Z,69.40
2019-03-31T02:00:33.261Z,69.70
2019-03-31T02:03:04.384Z,70.00
2019-03-31T02:05:35.226Z,70.30
2019-03-31T02:08:06.552Z,70.60
2019-03-31T02:10:37.517Z,70.80
2019-03-31T02:13:08.404Z,71.00
2019-03-31T02:15:39.596Z,71.30
2019-03-31T02:18:10.445Z,71.70
2019-03-31T02:20:41.457Z,71.90
2019-03-31T02:23:12.389Z,72.00
2019-03-31T02:25:43.229Z,72.30
2019-03-31T02:28:14.189Z,72.50
2019-03-31T02:30:45.104Z,72.40
2019-03-31T02:33:15.942Z,72.60
2019-03-31T02:35:46.848Z,72.80
2019-03-31T02:38:17.731Z,73.70
2019-03-31T02:40:48.529Z,74.80
2019-03-31T02:43:19.439Z,74.80
2019-03-31T02:45:50.407Z,74.60
2019-03-31T02:48:21.247Z,74.70
2019-03-31T02:50:53.372Z,74.70
2019-03-31T02:53:24.218Z,74.70
2019-03-31T02:55:56.460Z,75.00
2019-03-31T02:58:28.443Z,75.40
2019-03-31T03:01:00.219Z,75.70
2019-03-31T03:03:32.755Z,75.20
2019-03-31T03:06:05.288Z,75.70
2019-03-31T03:08:38.701Z,76.20
2019-03-31T03:11:10.850Z,77.90
2019-03-31T03:13:43.590Z,78.00
2019-03-31T03:16:18.915Z,78.00
2019-03-31T03:18:49.951Z,78.60
2019-03-31T03:21:24.033Z,78.70
2019-03-31T03:23:54.035Z,79.10
2019-03-31T03:26:25.068Z,79.30
2019-03-31T03:28:55.932Z,79.60
2019-03-31T03:31:26.872Z,79.60
2019-03-31T03:33:57.722Z,79.70
2019-03-31T03:36:28.542Z,80.00
2019-03-31T03:38:59.434Z,80.30
2019-03-31T03:41:30.339Z,80.10
2019-03-31T03:44:02.471Z,80.00
2019-03-31T03:46:33.921Z,80.00
2019-03-31T03:49:05.048Z,80.10
2019-03-31T03:51:36.014Z,80.00
2019-03-31T03:54:06.921Z,80.60
2019-03-31T03:56:37.851Z,81.00
2019-03-31T03:59:08.667Z,81.30
2019-03-31T04:01:39.635Z,81.20
2019-03-31T04:04:10.481Z,81.10
2019-03-31T04:06:41.546Z,81.20
2019-03-31T04:09:12.390Z,81.60
2019-03-31T04:11:43.419Z,81.80
2019-03-31T04:14:14.324Z,81.90
2019-03-31T04:16:45.202Z,82.10
2019-03-31T04:19:16.042Z,82.60
2019-03-31T04:21:46.929Z,83.00
2019-03-31T04:24:17.769Z,83.20
2019-03-31T04:26:48.655Z,83.60
2019-03-31T04:29:19.494Z,83.80
2019-03-31T04:31:50.403Z,84.20
2019-03-31T04:34:22.597Z,84.40
2019-03-31T04:36:53.457Z,84.30
2019-03-31T04:39:24.337Z,85.10
2019-03-31T04:41:55.186Z,84.20
2019-03-31T04:44:26.025Z,84.30
2019-03-31T04:46:56.990Z,84.50
2019-03-31T04:49:27.841Z,84.70
2019-03-31T04:51:58.690Z,84.70
2019-03-31T04:54:29.530Z,84.70
2019-03-31T04:57:00.406Z,85.50
2019-03-31T04:59:31.254Z,84.40
2019-03-31T05:02:02.394Z,85.70
2019-03-31T05:04:33.333Z,85.90
2019-03-31T05:07:04.193Z,85.80
2019-03-31T05:09:35.048Z,86.20
2019-03-31T05:12:05.899Z,86.30
2019-03-31T05:14:36.810Z,86.10
2019-03-31T05:17:07.830Z,85.80
2019-03-31T05:19:38.959Z,85.70
2019-03-31T05:22:09.810Z,86.10
2019-03-31T05:24:40.698Z,86.10
2019-03-31T05:27:11.529Z,86.00
2019-03-31T05:29:42.458Z,87.00
2019-03-31T05:32:13.329Z,86.40
2019-03-31T05:34:44.361Z,86.30
2019-03-31T05:37:15.242Z,86.60
2019-03-31T05:39:46.087Z,86.70
2019-03-31T05:42:16.971Z,86.80
2019-03-31T05:44:47.825Z,87.70
2019-03-31T05:47:18.817Z,88.40
2019-03-31T05:49:49.752Z,89.00
2019-03-31T05:52:20.791Z,89.50
2019-03-31T05:54:51.628Z,90.10
2019-03-31T05:57:22.556Z,90.30
2019-03-31T05:59:53.398Z,90.40
2019-03-31T06:02:24.402Z,90.30
2019-03-31T06:04:55.249Z,90.60
2019-03-31T06:07:26.188Z,90.60
2019-03-31T06:09:56.993Z,90.90
2019-03-31T06:12:27.874Z,91.20
2019-03-31T06:14:58.785Z,91.20
2019-03-31T06:17:29.661Z,91.30
2019-03-31T06:20:00.522Z,91.50
2019-03-31T06:22:31.409Z,91.60
2019-03-31T06:25:02.263Z,91.70
2019-03-31T06:27:33.129Z,91.60
2019-03-31T06:30:04.489Z,91.60
2019-03-31T06:32:35.384Z,91.80
2019-03-31T06:35:07.025Z,91.80
2019-03-31T06:37:38.473Z,91.70
2019-03-31T06:40:10.909Z,91.80
2019-03-31T06:42:42.137Z,91.80
2019-03-31T06:45:13.061Z,91.90
2019-03-31T06:47:43.941Z,92.00
2019-03-31T06:50:14.790Z,92.00
2019-03-31T06:52:45.629Z,92.10
2019-03-31T06:55:16.542Z,92.10
2019-03-31T06:57:47.388Z,92.30
2019-03-31T07:00:18.532Z,92.20
2019-03-31T07:02:49.398Z,92.60
2019-03-31T07:05:20.341Z,92.20
2019-03-31T07:07:51.194Z,92.00
2019-03-31T07:10:22.071Z,91.90
2019-03-31T07:12:52.935Z,91.90
2019-03-31T07:15:23.814Z,91.90
2019-03-31T07:17:54.685Z,91.90
2019-03-31T07:20:25.649Z,92.00
2019-03-31T07:22:56.490Z,91.90
2019-03-31T07:25:27.368Z,91.90
2019-03-31T07:27:58.243Z,91.80
2019-03-31T07:30:29.219Z,91.60
2019-03-31T07:33:00.089Z,91.70
2019-03-31T07:35:31.042Z,91.80
2019-03-31T07:38:01.901Z,91.40
2019-03-31T07:40:32.841Z,91.30
2019-03-31T07:43:03.757Z,91.20
2019-03-31T07:45:34.643Z,91.20
2019-03-31T07:48:08.122Z,91.20
2019-03-31T07:50:40.638Z,91.40
2019-03-31T07:53:11.525Z,91.50
2019-03-31T07:55:42.379Z,91.60
2019-03-31T07:58:13.446Z,91.90
2019-03-31T08:00:44.778Z,92.10
2019-03-31T08:03:15.727Z,92.10
2019-03-31T08:05:46.660Z,92.20
2019-03-31T08:08:17.540Z,92.40
2019-03-31T08:10:48.409Z,92.40
2019-03-31T08:13:19.333Z,92.20
2019-03-31T08:15:50.366Z,92.20
2019-03-31T08:18:21.225Z,92.40
2019-03-31T08:20:52.062Z,92.50
2019-03-31T08:23:22.935Z,92.60
2019-03-31T08:25:53.795Z,92.60
2019-03-31T08:28:25.790Z,92.40
2019-03-31T08:30:56.820Z,92.40
2019-03-31T08:33:27.687Z,92.40
2019-03-31T08:36:00.292Z,92.80
2019-03-31T08:39:55.178Z,92.70
2019-03-31T08:42:26.099Z,92.80
2019-03-31T08:44:56.994Z,92.90
2019-03-31T08:47:29.012Z,92.90
2019-03-31T08:50:02.121Z,92.80
2019-03-31T08:52:33.693Z,92.80
2019-03-31T08:55:04.776Z,92.80
2019-03-31T08:57:35.716Z,92.70
2019-03-31T09:00:09.345Z,92.70
2019-03-31T09:02:40.681Z,92.70
2019-03-31T09:05:12.102Z,92.40
2019-03-31T09:07:42.993Z,92.40
2019-03-31T09:10:14.076Z,91.90
2019-03-31T09:12:48.321Z,92.00
2019-03-31T09:15:17.636Z,91.80
2019-03-31T09:17:49.789Z,91.80
2019-03-31T09:20:20.642Z,91.80
2019-03-31T09:22:51.618Z,91.80
2019-03-31T09:25:22.482Z,91.10
2019-03-31T09:27:53.328Z,90.70
2019-03-31T09:30:26.148Z,91.50
2019-03-31T09:33:09.172Z,91.10
2019-03-31T09:35:40.779Z,91.50
2019-03-31T09:38:11.721Z,91.60
2019-03-31T09:40:42.597Z,91.50
2019-03-31T09:43:13.549Z,91.40
2019-03-31T09:45:44.417Z,91.40
2019-03-31T09:48:15.325Z,91.40
2019-03-31T09:50:46.180Z,91.70
2019-03-31T09:53:19.061Z,91.70
2019-03-31T09:55:49.904Z,91.80
2019-03-31T09:58:21.002Z,91.80
2019-03-31T10:00:54.387Z,92.20
2019-03-31T10:03:25.561Z,92.00
2019-03-31T10:06:09.876Z,91.90
2019-03-31T10:08:30.421Z,91.20
2019-03-31T10:11:03.035Z,91.20
2019-03-31T10:13:34.209Z,91.90
2019-03-31T10:16:05.112Z,91.80
2019-03-31T10:18:36.074Z,91.00
2019-03-31T10:21:12.775Z,90.30
2019-03-31T10:23:43.908Z,90.10
2019-03-31T10:26:17.669Z,90.20
2019-03-31T10:28:48.788Z,90.30
2019-03-31T10:31:21.181Z,89.90
2019-03-31T10:33:51.958Z,90.20
2019-03-31T10:36:22.813Z,90.00
2019-03-31T10:38:53.679Z,89.20
2019-03-31T10:41:24.667Z,88.30
2019-03-31T10:43:55.516Z,87.90
2019-03-31T10:46:26.569Z,87.00
2019-03-31T10:48:57.460Z,86.60
2019-03-31T10:51:28.311Z,86.90
2019-03-31T10:54:04.425Z,85.30
2019-03-31T10:56:34.896Z,85.60
2019-03-31T10:59:11.478Z,87.00
2019-03-31T11:01:42.736Z,85.90
2019-03-31T11:04:15.730Z,85.00
2019-03-31T11:06:58.216Z,84.50
2019-03-31T11:09:19.543Z,83.90
2019-03-31T11:11:50.424Z,83.70
2019-03-31T11:14:21.297Z,83.40
2019-03-31T11:16:53.347Z,83.10
2019-03-31T11:19:24.946Z,82.40
2019-03-31T11:22:04.732Z,83.60
2019-03-31T11:24:53.158Z,82.90
2019-03-31T11:27:43.890Z,83.00
2019-03-31T11:30:14.606Z,82.50
2019-03-31T11:32:46.003Z,81.60
2019-03-31T11:35:16.890Z,81.30
2019-03-31T11:37:47.750Z,81.30
2019-03-31T11:40:19.065Z,81.70
2019-03-31T11:42:53.178Z,81.70
2019-03-31T11:45:25.096Z,82.00
2019-03-31T11:47:56.738Z,82.00
2019-03-31T11:50:35.393Z,81.20
2019-03-31T11:53:09.979Z,80.70
2019-03-31T11:55:45.445Z,80.00
2019-03-31T11:58:16.834Z,79.80
2019-03-31T12:00:55.455Z,80.40
2019-03-31T12:03:26.822Z,79.40
2019-03-31T12:05:57.713Z,80.50
2019-03-31T12:08:30.358Z,78.80
2019-03-31T12:11:02.514Z,79.00
2019-03-31T12:13:33.337Z,78.80
2019-03-31T12:16:06.640Z,79.40
2019-03-31T12:18:42.348Z,79.90
2019-03-31T12:21:14.397Z,79.00
2019-03-31T12:23:46.234Z,78.70
2019-03-31T12:26:18.854Z,79.60
2019-03-31T12:28:50.720Z,78.30
2019-03-31T12:31:22.475Z,78.60
2019-03-31T12:33:57.901Z,79.40
2019-03-31T12:36:29.756Z,80.40
2019-03-31T12:39:02.237Z,79.60
2019-03-31T12:41:33.395Z,78.80
2019-03-31T12:44:03.990Z,77.70
2019-03-31T12:46:34.854Z,77.80
2019-03-31T12:49:05.910Z,78.00
2019-03-31T12:51:36.903Z,77.70
2019-03-31T12:54:10.480Z,77.10
2019-03-31T12:56:44.048Z,76.90
2019-03-31T12:59:16.789Z,77.20
2019-03-31T13:01:48.767Z,77.30
2019-03-31T13:04:20.328Z,78.10
2019-03-31T13:06:54.064Z,78.00
2019-03-31T13:09:25.173Z,77.80
2019-03-31T13:11:56.037Z,77.30
2019-03-31T13:14:27.791Z,77.50
2019-03-31T13:17:01.524Z,77.30
2019-03-31T13:19:32.333Z,77.40
2019-03-31T13:22:03.270Z,77.90
2019-03-31T13:24:34.612Z,77.60
2019-03-31T13:27:06.573Z,78.30
2019-03-31T13:29:38.500Z,78.00
2019-03-31T13:32:09.613Z,79.20
2019-03-31T13:34:41.572Z,77.90
2019-03-31T13:37:12.446Z,78.00
2019-03-31T13:39:43.747Z,77.80
2019-03-31T13:42:14.670Z,78.30
2019-03-31T13:44:47.836Z,78.00
2019-03-31T13:47:18.865Z,77.80
2019-03-31T13:49:49.866Z,78.70
2019-03-31T13:52:20.876Z,78.00
2019-03-31T13:54:52.074Z,78.00
2019-03-31T13:57:23.334Z,77.80
2019-03-31T13:59:54.777Z,77.30
2019-03-31T14:02:25.652Z,78.20
2019-03-31T14:04:56.499Z,77.50
2019-03-31T14:07:27.369Z,76.70
2019-03-31T14:09:58.226Z,76.70
2019-03-31T14:12:29.106Z,77.30
2019-03-31T14:15:00.014Z,76.80
2019-03-31T14:17:30.913Z,77.70
2019-03-31T14:20:02.090Z,77.80
2019-03-31T14:22:33.170Z,77.70
2019-03-31T14:25:04.118Z,76.90
2019-03-31T14:27:35.228Z,76.20
2019-03-31T14:30:07.014Z,76.50
2019-03-31T14:32:38.058Z,75.80
2019-03-31T14:35:10.870Z,76.50
2019-03-31T14:37:42.261Z,75.40
2019-03-31T14:40:13.190Z,74.10
2019-03-31T14:42:44.045Z,74.50
2019-03-31T14:45:29.114Z,74.90
2019-03-31T14:48:00.356Z,75.00
2019-03-31T14:50:39.041Z,75.30
2019-03-31T14:53:10.194Z,73.70
2019-03-31T14:55:41.496Z,73.90
2019-03-31T14:58:12.438Z,73.20
2019-03-31T15:00:43.282Z,73.50
2019-03-31T15:03:14.179Z,72.80
2019-03-31T15:05:45.280Z,73.20
2019-03-31T15:08:16.155Z,73.80
2019-03-31T15:10:47.023Z,73.70
2019-03-31T15:13:17.892Z,73.30
2019-03-31T15:15:48.733Z,73.30
2019-03-31T15:18:19.678Z,73.10
2019-03-31T15:20:50.533Z,73.00
2019-03-31T15:23:29.016Z,72.90
2019-03-31T15:25:53.940Z,73.10
2019-03-31T15:28:24.805Z,73.20
2019-03-31T15:30:55.658Z,72.70
2019-03-31T15:33:26.562Z,72.90
2019-03-31T15:35:57.538Z,72.90
2019-03-31T15:38:28.433Z,72.30
2019-03-31T15:40:59.354Z,71.10
2019-03-31T15:43:30.274Z,70.50
2019-03-31T15:46:01.157Z,71.80
2019-03-31T15:48:32.017Z,71.10
2019-03-31T15:51:02.934Z,69.50
2019-03-31T15:53:33.910Z,69.90
2019-03-31T15:56:04.866Z,70.60
2019-03-31T15:58:35.838Z,69.80
2019-03-31T16:01:07.039Z,69.70
2019-03-31T16:03:38.682Z,69.10
2019-03-31T16:06:09.504Z,69.30
2019-03-31T16:08:39.929Z,69.70
2019-03-31T16:11:10.284Z,69.50
2019-03-31T16:13:40.822Z,69.60
2019-03-31T16:16:14.126Z,69.40
2019-03-31T16:18:43.220Z,69.10
2019-03-31T16:21:15.665Z,68.90
2019-03-31T16:23:46.011Z,69.10
2019-03-31T16:26:16.452Z,69.00
2019-03-31T16:28:46.812Z,69.60
2019-03-31T16:31:17.225Z,68.70
2019-03-31T16:33:47.642Z,69.10
2019-03-31T16:36:19.091Z,68.70
2019-03-31T16:38:49.408Z,69.20
2019-03-31T16:41:19.819Z,69.80
2019-03-31T16:43:50.134Z,69.90
2019-03-31T16:46:20.450Z,70.10
2019-03-31T16:48:50.791Z,70.40
2019-03-31T16:51:21.311Z,70.40
2019-03-31T16:53:52.194Z,70.60
2019-03-31T16:56:25.116Z,70.50
2019-03-31T16:58:55.511Z,70.90
2019-03-31T17:01:25.996Z,70.60
2019-03-31T17:03:57.657Z,71.00
2019-03-31T17:06:27.995Z,71.50
2019-03-31T17:08:58.328Z,71.60
2019-03-31T17:11:28.788Z,71.80
2019-03-31T17:13:59.570Z,71.50
2019-03-31T17:16:30.454Z,71.90
2019-03-31T17:19:01.199Z,71.90
2019-03-31T17:21:32.034Z,72.00
2019-03-31T17:24:02.434Z,72.20
2019-03-31T17:26:32.750Z,72.20
2019-03-31T17:29:03.133Z,72.90
2019-03-31T17:31:35.522Z,72.30
2019-03-31T17:34:06.146Z,72.50
2019-03-31T17:36:36.502Z,72.70
2019-03-31T17:39:08.356Z,72.70
2019-03-31T17:41:40.233Z,72.50
2019-03-31T17:44:12.248Z,73.10
2019-03-31T17:46:42.505Z,72.30
2019-03-31T17:49:12.991Z,72.10
2019-03-31T17:51:45.205Z,71.90
2019-03-31T17:54:15.647Z,71.90
2019-03-31T17:56:46.180Z,72.30
2019-03-31T17:59:16.613Z,72.50
2019-03-31T18:01:46.989Z,73.50
2019-03-31T18:04:17.465Z,73.40
2019-03-31T18:06:47.813Z,73.80
2019-03-31T18:09:19.046Z,73.70
2019-03-31T18:11:49.730Z,74.00
2019-03-31T18:14:20.145Z,73.90
2019-03-31T18:16:50.785Z,74.10
2019-03-31T18:19:21.202Z,74.30
2019-03-31T18:21:51.480Z,74.20
2019-03-31T18:24:21.872Z,74.20
2019-03-31T18:26:52.173Z,74.10
2019-03-31T18:29:22.559Z,74.30
2019-03-31T18:31:54.115Z,74.60
2019-03-31T18:34:25.392Z,74.50
2019-03-31T18:36:56.094Z,74.60
2019-03-31T18:39:26.469Z,74.70
2019-03-31T18:41:56.769Z,74.90
2019-03-31T18:44:27.106Z,75.00
2019-03-31T18:46:57.410Z,75.10
2019-03-31T18:49:27.922Z,75.20
2019-03-31T18:51:58.235Z,75.40
2019-03-31T18:54:38.620Z,75.20
2019-03-31T18:57:38.457Z,75.40
2019-03-31T19:00:18.173Z,75.40
2019-03-31T19:02:55.128Z,75.40
2019-03-31T19:05:43.334Z,75.50
2019-03-31T19:08:36.493Z,75.40
2019-03-31T19:11:28.486Z,76.30
2019-03-31T19:14:16.840Z,75.70
2019-03-31T19:17:09.444Z,75.70
2019-03-31T19:20:01.561Z,75.80
2019-03-31T19:22:50.198Z,75.80
2019-03-31T19:25:38.508Z,76.10
2019-03-31T19:28:26.273Z,75.90
2019-03-31T19:31:15.650Z,75.70
2019-03-31T19:34:13.821Z,75.90
2019-03-31T19:36:50.808Z,76.10
2019-03-31T19:39:44.165Z,76.00
2019-03-31T19:42:36.651Z,75.80
2019-03-31T19:45:35.661Z,75.80
2019-03-31T19:48:24.369Z,75.90
2019-03-31T19:51:02.916Z,76.00
2019-03-31T19:53:52.270Z,76.10
2019-03-31T19:56:45.586Z,76.20
2019-03-31T19:59:38.520Z,76.20
2019-03-31T20:02:19.268Z,76.20
2019-03-31T20:05:23.945Z,76.30
2019-03-31T20:08:31.769Z,76.40
2019-03-31T20:11:21.168Z,76.20
2019-03-31T20:14:07.355Z,76.30
2019-03-31T20:17:02.932Z,76.50
2019-03-31T20:19:45.902Z,76.50
2019-03-31T20:22:22.784Z,76.40
2019-03-31T20:25:15.252Z,76.60
2019-03-31T20:28:04.142Z,76.40
2019-03-31T20:31:05.656Z,76.20
2019-03-31T20:33:45.987Z,76.40
2019-03-31T20:36:23.268Z,76.40
2019-03-31T20:39:12.625Z,76.30
2019-03-31T20:42:04.318Z,76.30
2019-03-31T20:44:34.777Z,76.40
2019-03-31T20:47:05.166Z,76.20
2019-03-31T20:49:36.666Z,76.20
2019-03-31T20:52:07.089Z,76.00
2019-03-31T20:54:37.062Z,76.10
2019-03-31T20:57:07.455Z,76.30
2019-03-31T20:59:39.593Z,76.30
2019-03-31T21:02:11.283Z,76.20
2019-03-31T21:04:41.730Z,76.00
2019-03-31T21:07:12.065Z,76.20
2019-03-31T21:09:45.062Z,75.80
2019-03-31T21:12:14.662Z,75.90
2019-03-31T21:14:45.053Z,75.70
2019-03-31T21:17:15.409Z,75.90
2019-03-31T21:19:45.825Z,75.60
2019-03-31T21:22:16.137Z,75.50
2019-03-31T21:24:46.484Z,75.50
2019-03-31T21:27:16.827Z,75.40
2019-03-31T21:29:47.161Z,75.30
2019-03-31T21:32:17.505Z,75.50
2019-03-31T21:34:47.801Z,75.50
2019-03-31T21:37:18.093Z,75.60
2019-03-31T21:39:48.411Z,75.40
2019-03-31T21:42:18.707Z,75.50
2019-03-31T21:44:49.197Z,75.50
2019-03-31T21:47:19.516Z,75.50
2019-03-31T21:49:49.801Z,75.20
2019-03-31T21:52:20.139Z,75.30
2019-03-31T21:54:50.454Z,75.40
2019-03-31T21:57:20.812Z,76.20
2019-03-31T21:59:51.113Z,75.50
2019-03-31T22:02:21.529Z,75.30
2019-03-31T22:04:51.897Z,75.30
2019-03-31T22:07:22.275Z,75.20
2019-03-31T22:09:52.575Z,75.00
2019-03-31T22:12:22.915Z,75.00
2019-03-31T22:14:53.241Z,74.90
2019-03-31T22:17:23.706Z,75.00
2019-03-31T22:19:54.031Z,74.80
2019-03-31T22:22:24.393Z,74.60
2019-03-31T22:24:54.700Z,74.30
2019-03-31T22:27:25.005Z,74.30
2019-03-31T22:29:55.289Z,74.20
2019-03-31T22:32:25.592Z,74.00
2019-03-31T22:34:55.890Z,74.00
2019-03-31T22:37:26.213Z,74.10
2019-03-31T22:39:56.560Z,74.00
2019-03-31T22:42:27.082Z,73.70
2019-03-31T22:44:57.353Z,73.80
2019-03-31T22:47:27.698Z,73.70
2019-03-31T22:49:58.038Z,73.50
2019-03-31T22:52:28.329Z,73.80
2019-03-31T22:54:58.733Z,73.70
2019-03-31T22:57:29.066Z,73.70
2019-03-31T22:59:59.377Z,73.80
2019-03-31T23:02:29.781Z,73.80
2019-03-31T23:05:00.154Z,73.80
2019-03-31T23:07:30.666Z,73.80
2019-03-31T23:10:01.054Z,74.20
2019-03-31T23:12:31.421Z,74.20
2019-03-31T23:15:01.862Z,74.10
2019-03-31T23:17:32.231Z,74.10
2019-03-31T23:20:02.538Z,74.10
2019-03-31T23:22:32.955Z,74.30
2019-03-31T23:25:03.360Z,74.20
2019-03-31T23:27:33.775Z,74.70
2019-03-31T23:30:06.050Z,74.50
2019-03-31T23:32:36.455Z,74.80
2019-03-31T23:35:07.988Z,74.80
2019-03-31T23:37:38.400Z,74.70
2019-03-31T23:40:09.075Z,74.90
2019-03-31T23:42:39.457Z,75.00
2019-03-31T23:45:12.140Z,75.20
2019-03-31T23:47:42.421Z,75.20
2019-03-31T23:50:12.838Z,75.30
2019-03-31T23:52:43.149Z,76.10
2019-03-31T23:55:13.501Z,75.40
2019-03-31T23:57:43.864Z,75.40
